sensor_id;sensor_type;location;lat;lon;timestamp;pressure;altitude;pressure_sealevel;temperature
68510;BMP180;55512;50.102;19.958;2023-11-21T00:02:25;97786.00;;;8.80
68510;BMP180;55512;50.102;19.958;2023-11-21T00:04:50;97784.60;;;8.80
68510;BMP180;55512;50.102;19.958;2023-11-21T00:07:16;97786.40;;;8.80
68510;BMP180;55512;50.102;19.958;2023-11-21T00:09:42;97794.40;;;8.80
68510;BMP180;55512;50.102;19.958;2023-11-21T00:12:08;97797.00;;;8.80
68510;BMP180;55512;50.102;19.958;2023-11-21T00:14:39;97803.20;;;8.80
68510;BMP180;55512;50.102;19.958;2023-11-21T00:17:06;97803.80;;;8.80
68510;BMP180;55512;50.102;19.958;2023-11-21T00:19:32;97806.20;;;8.80
68510;BMP180;55512;50.102;19.958;2023-11-21T00:21:58;97807.80;;;8.80
68510;BMP180;55512;50.102;19.958;2023-11-21T00:24:24;97810.60;;;8.80
68510;BMP180;55512;50.102;19.958;2023-11-21T00:26:51;97809.40;;;8.80
68510;BMP180;55512;50.102;19.958;2023-11-21T00:29:17;97814.00;;;8.80
68510;BMP180;55512;50.102;19.958;2023-11-21T00:31:44;97811.80;;;8.80
68510;BMP180;55512;50.102;19.958;2023-11-21T00:34:12;97815.80;;;8.80
68510;BMP180;55512;50.102;19.958;2023-11-21T00:36:37;97813.40;;;8.80
68510;BMP180;55512;50.102;19.958;2023-11-21T00:39:04;97810.40;;;8.80
68510;BMP180;55512;50.102;19.958;2023-11-21T00:41:31;97808.60;;;8.80
68510;BMP180;55512;50.102;19.958;2023-11-21T00:43:57;97805.20;;;8.80
68510;BMP180;55512;50.102;19.958;2023-11-21T00:46:22;97810.00;;;8.80
68510;BMP180;55512;50.102;19.958;2023-11-21T00:48:49;97808.20;;;8.78
68510;BMP180;55512;50.102;19.958;2023-11-21T00:51:15;97808.00;;;8.76
68510;BMP180;55512;50.102;19.958;2023-11-21T00:53:40;97809.60;;;8.70
68510;BMP180;55512;50.102;19.958;2023-11-21T00:56:06;97809.00;;;8.70
68510;BMP180;55512;50.102;19.958;2023-11-21T00:58:33;97812.20;;;8.70
68510;BMP180;55512;50.102;19.958;2023-11-21T01:00:59;97809.20;;;8.70
68510;BMP180;55512;50.102;19.958;2023-11-21T01:03:24;97816.40;;;8.80
68510;BMP180;55512;50.102;19.958;2023-11-21T01:05:50;97806.80;;;8.80
68510;BMP180;55512;50.102;19.958;2023-11-21T01:08:15;97812.60;;;8.80
68510;BMP180;55512;50.102;19.958;2023-11-21T01:10:41;97813.40;;;8.80
68510;BMP180;55512;50.102;19.958;2023-11-21T01:13:07;97812.40;;;8.80
68510;BMP180;55512;50.102;19.958;2023-11-21T01:15:33;97815.60;;;8.80
68510;BMP180;55512;50.102;19.958;2023-11-21T01:17:59;97807.80;;;8.80
68510;BMP180;55512;50.102;19.958;2023-11-21T01:20:27;97812.40;;;8.80
68510;BMP180;55512;50.102;19.958;2023-11-21T01:22:53;97805.80;;;8.80
68510;BMP180;55512;50.102;19.958;2023-11-21T01:25:19;97804.40;;;8.80
68510;BMP180;55512;50.102;19.958;2023-11-21T01:27:44;97806.80;;;8.80
68510;BMP180;55512;50.102;19.958;2023-11-21T01:30:10;97809.20;;;8.80
68510;BMP180;55512;50.102;19.958;2023-11-21T01:32:36;97810.00;;;8.80
68510;BMP180;55512;50.102;19.958;2023-11-21T01:35:03;97810.60;;;8.80
68510;BMP180;55512;50.102;19.958;2023-11-21T01:37:30;97807.80;;;8.80
68510;BMP180;55512;50.102;19.958;2023-11-21T01:39:56;97810.20;;;8.80
68510;BMP180;55512;50.102;19.958;2023-11-21T01:42:21;97811.80;;;8.80
68510;BMP180;55512;50.102;19.958;2023-11-21T01:44:47;97811.20;;;8.80
68510;BMP180;55512;50.102;19.958;2023-11-21T01:47:14;97817.20;;;8.80
68510;BMP180;55512;50.102;19.958;2023-11-21T01:49:44;97818.20;;;8.80
68510;BMP180;55512;50.102;19.958;2023-11-21T01:52:11;97814.80;;;8.80
68510;BMP180;55512;50.102;19.958;2023-11-21T01:54:38;97814.20;;;8.80
68510;BMP180;55512;50.102;19.958;2023-11-21T01:57:05;97815.20;;;8.80
68510;BMP180;55512;50.102;19.958;2023-11-21T01:59:36;97814.40;;;8.80
68510;BMP180;55512;50.102;19.958;2023-11-21T02:02:06;97818.60;;;8.80
68510;BMP180;55512;50.102;19.958;2023-11-21T02:04:33;97816.60;;;8.82
68510;BMP180;55512;50.102;19.958;2023-11-21T02:07:02;97824.80;;;8.86
68510;BMP180;55512;50.102;19.958;2023-11-21T02:09:31;97822.40;;;8.84
68510;BMP180;55512;50.102;19.958;2023-11-21T02:11:58;97820.20;;;8.84
68510;BMP180;55512;50.102;19.958;2023-11-21T02:14:27;97815.00;;;8.90
68510;BMP180;55512;50.102;19.958;2023-11-21T02:16:54;97815.20;;;8.90
68510;BMP180;55512;50.102;19.958;2023-11-21T02:19:22;97813.40;;;8.90
68510;BMP180;55512;50.102;19.958;2023-11-21T02:21:56;97819.00;;;8.90
68510;BMP180;55512;50.102;19.958;2023-11-21T02:24:26;97819.40;;;8.90
68510;BMP180;55512;50.102;19.958;2023-11-21T02:26:52;97823.60;;;8.90
68510;BMP180;55512;50.102;19.958;2023-11-21T02:29:21;97825.00;;;8.90
68510;BMP180;55512;50.102;19.958;2023-11-21T02:31:54;97824.00;;;8.90
68510;BMP180;55512;50.102;19.958;2023-11-21T02:34:22;97822.40;;;8.90
68510;BMP180;55512;50.102;19.958;2023-11-21T02:36:48;97823.40;;;8.82
68510;BMP180;55512;50.102;19.958;2023-11-21T02:39:15;97818.40;;;8.80
68510;BMP180;55512;50.102;19.958;2023-11-21T02:41:45;97817.80;;;8.80
68510;BMP180;55512;50.102;19.958;2023-11-21T02:44:10;97816.20;;;8.80
68510;BMP180;55512;50.102;19.958;2023-11-21T02:46:36;97816.80;;;8.80
68510;BMP180;55512;50.102;19.958;2023-11-21T02:49:05;97818.20;;;8.80
68510;BMP180;55512;50.102;19.958;2023-11-21T02:51:36;97817.60;;;8.80
68510;BMP180;55512;50.102;19.958;2023-11-21T02:54:03;97820.40;;;8.70
68510;BMP180;55512;50.102;19.958;2023-11-21T02:56:32;97817.40;;;8.70
68510;BMP180;55512;50.102;19.958;2023-11-21T02:59:00;97826.80;;;8.70
68510;BMP180;55512;50.102;19.958;2023-11-21T03:01:26;97823.20;;;8.60
68510;BMP180;55512;50.102;19.958;2023-11-21T03:03:53;97819.40;;;8.60
68510;BMP180;55512;50.102;19.958;2023-11-21T03:06:20;97825.80;;;8.60
68510;BMP180;55512;50.102;19.958;2023-11-21T03:08:46;97820.20;;;8.60
68510;BMP180;55512;50.102;19.958;2023-11-21T03:11:13;97826.40;;;8.60
68510;BMP180;55512;50.102;19.958;2023-11-21T03:13:40;97826.40;;;8.60
68510;BMP180;55512;50.102;19.958;2023-11-21T03:16:09;97826.00;;;8.60
68510;BMP180;55512;50.102;19.958;2023-11-21T03:18:34;97830.40;;;8.60
68510;BMP180;55512;50.102;19.958;2023-11-21T03:20:59;97834.20;;;8.50
68510;BMP180;55512;50.102;19.958;2023-11-21T03:23:25;97829.80;;;8.50
68510;BMP180;55512;50.102;19.958;2023-11-21T03:25:50;97828.00;;;8.50
68510;BMP180;55512;50.102;19.958;2023-11-21T03:28:16;97829.40;;;8.50
68510;BMP180;55512;50.102;19.958;2023-11-21T03:30:41;97831.40;;;8.50
68510;BMP180;55512;50.102;19.958;2023-11-21T03:33:06;97840.40;;;8.50
68510;BMP180;55512;50.102;19.958;2023-11-21T03:35:33;97831.20;;;8.42
68510;BMP180;55512;50.102;19.958;2023-11-21T03:37:58;97838.00;;;8.50
68510;BMP180;55512;50.102;19.958;2023-11-21T03:40:24;97841.40;;;8.50
68510;BMP180;55512;50.102;19.958;2023-11-21T03:42:49;97844.20;;;8.50
68510;BMP180;55512;50.102;19.958;2023-11-21T03:45:14;97844.40;;;8.50
68510;BMP180;55512;50.102;19.958;2023-11-21T03:47:43;97843.60;;;8.46
68510;BMP180;55512;50.102;19.958;2023-11-21T03:50:09;97847.00;;;8.50
68510;BMP180;55512;50.102;19.958;2023-11-21T03:52:35;97844.20;;;8.50
68510;BMP180;55512;50.102;19.958;2023-11-21T03:55:01;97845.40;;;8.50
68510;BMP180;55512;50.102;19.958;2023-11-21T03:57:27;97844.80;;;8.50
68510;BMP180;55512;50.102;19.958;2023-11-21T03:59:53;97851.80;;;8.50
68510;BMP180;55512;50.102;19.958;2023-11-21T04:02:19;97848.80;;;8.50
68510;BMP180;55512;50.102;19.958;2023-11-21T04:04:44;97845.20;;;8.50
68510;BMP180;55512;50.102;19.958;2023-11-21T04:07:10;97844.80;;;8.50
68510;BMP180;55512;50.102;19.958;2023-11-21T04:09:36;97850.00;;;8.48
68510;BMP180;55512;50.102;19.958;2023-11-21T04:12:02;97851.40;;;8.40
68510;BMP180;55512;50.102;19.958;2023-11-21T04:14:28;97852.00;;;8.40
68510;BMP180;55512;50.102;19.958;2023-11-21T04:16:53;97851.40;;;8.40
68510;BMP180;55512;50.102;19.958;2023-11-21T04:19:19;97850.60;;;8.40
68510;BMP180;55512;50.102;19.958;2023-11-21T04:21:44;97853.00;;;8.40
68510;BMP180;55512;50.102;19.958;2023-11-21T04:24:10;97850.40;;;8.34
68510;BMP180;55512;50.102;19.958;2023-11-21T04:26:36;97856.60;;;8.30
68510;BMP180;55512;50.102;19.958;2023-11-21T04:29:01;97854.40;;;8.30
68510;BMP180;55512;50.102;19.958;2023-11-21T04:31:27;97851.20;;;8.20
68510;BMP180;55512;50.102;19.958;2023-11-21T04:33:52;97855.80;;;8.20
68510;BMP180;55512;50.102;19.958;2023-11-21T04:36:19;97846.00;;;8.18
68510;BMP180;55512;50.102;19.958;2023-11-21T04:38:45;97849.40;;;8.12
68510;BMP180;55512;50.102;19.958;2023-11-21T04:41:11;97855.00;;;8.10
68510;BMP180;55512;50.102;19.958;2023-11-21T04:43:37;97848.80;;;8.10
68510;BMP180;55512;50.102;19.958;2023-11-21T04:46:02;97857.40;;;8.16
68510;BMP180;55512;50.102;19.958;2023-11-21T04:48:28;97864.60;;;8.20
68510;BMP180;55512;50.102;19.958;2023-11-21T04:50:53;97868.80;;;8.20
68510;BMP180;55512;50.102;19.958;2023-11-21T04:53:19;97865.20;;;8.10
68510;BMP180;55512;50.102;19.958;2023-11-21T04:55:45;97867.40;;;8.10
68510;BMP180;55512;50.102;19.958;2023-11-21T04:58:11;97870.80;;;8.10
68510;BMP180;55512;50.102;19.958;2023-11-21T05:00:37;97873.60;;;8.10
68510;BMP180;55512;50.102;19.958;2023-11-21T05:03:03;97876.80;;;8.10
68510;BMP180;55512;50.102;19.958;2023-11-21T05:05:30;97876.40;;;8.10
68510;BMP180;55512;50.102;19.958;2023-11-21T05:07:56;97874.80;;;8.10
68510;BMP180;55512;50.102;19.958;2023-11-21T05:10:21;97882.20;;;8.10
68510;BMP180;55512;50.102;19.958;2023-11-21T05:12:49;97879.80;;;8.10
68510;BMP180;55512;50.102;19.958;2023-11-21T05:15:18;97876.00;;;8.10
68510;BMP180;55512;50.102;19.958;2023-11-21T05:17:44;97879.40;;;8.10
68510;BMP180;55512;50.102;19.958;2023-11-21T05:20:12;97879.60;;;8.10
68510;BMP180;55512;50.102;19.958;2023-11-21T05:22:40;97880.80;;;8.10
68510;BMP180;55512;50.102;19.958;2023-11-21T05:25:06;97880.60;;;8.10
68510;BMP180;55512;50.102;19.958;2023-11-21T05:27:34;97890.60;;;8.10
68510;BMP180;55512;50.102;19.958;2023-11-21T05:30:02;97889.00;;;8.10
68510;BMP180;55512;50.102;19.958;2023-11-21T05:32:28;97887.80;;;8.06
68510;BMP180;55512;50.102;19.958;2023-11-21T05:34:53;97888.00;;;8.04
68510;BMP180;55512;50.102;19.958;2023-11-21T05:37:18;97900.00;;;8.00
68510;BMP180;55512;50.102;19.958;2023-11-21T05:39:44;97906.20;;;8.00
68510;BMP180;55512;50.102;19.958;2023-11-21T05:42:09;97909.20;;;8.00
68510;BMP180;55512;50.102;19.958;2023-11-21T05:44:37;97909.20;;;8.00
68510;BMP180;55512;50.102;19.958;2023-11-21T05:47:03;97911.60;;;8.00
68510;BMP180;55512;50.102;19.958;2023-11-21T05:49:29;97916.20;;;8.00
68510;BMP180;55512;50.102;19.958;2023-11-21T05:51:55;97914.00;;;8.00
68510;BMP180;55512;50.102;19.958;2023-11-21T05:54:21;97917.00;;;8.06
68510;BMP180;55512;50.102;19.958;2023-11-21T05:56:47;97916.80;;;8.02
68510;BMP180;55512;50.102;19.958;2023-11-21T05:59:13;97924.40;;;8.00
68510;BMP180;55512;50.102;19.958;2023-11-21T06:01:38;97923.80;;;8.00
68510;BMP180;55512;50.102;19.958;2023-11-21T06:04:05;97925.60;;;8.00
68510;BMP180;55512;50.102;19.958;2023-11-21T06:06:30;97931.60;;;8.00
68510;BMP180;55512;50.102;19.958;2023-11-21T06:08:57;97933.60;;;8.00
68510;BMP180;55512;50.102;19.958;2023-11-21T06:11:22;97934.60;;;8.00
68510;BMP180;55512;50.102;19.958;2023-11-21T06:13:50;97937.00;;;8.00
68510;BMP180;55512;50.102;19.958;2023-11-21T06:16:15;97942.60;;;8.02
68510;BMP180;55512;50.102;19.958;2023-11-21T06:18:41;97950.20;;;8.10
68510;BMP180;55512;50.102;19.958;2023-11-21T06:21:09;97955.60;;;8.10
68510;BMP180;55512;50.102;19.958;2023-11-21T06:23:34;97956.40;;;8.10
68510;BMP180;55512;50.102;19.958;2023-11-21T06:26:00;97957.60;;;8.10
68510;BMP180;55512;50.102;19.958;2023-11-21T06:28:25;97957.20;;;8.10
68510;BMP180;55512;50.102;19.958;2023-11-21T06:30:52;97950.80;;;8.10
68510;BMP180;55512;50.102;19.958;2023-11-21T06:33:19;97955.20;;;8.02
68510;BMP180;55512;50.102;19.958;2023-11-21T06:35:44;97957.20;;;8.00
68510;BMP180;55512;50.102;19.958;2023-11-21T06:38:10;97961.20;;;8.00
68510;BMP180;55512;50.102;19.958;2023-11-21T06:40:36;97961.00;;;8.00
68510;BMP180;55512;50.102;19.958;2023-11-21T06:43:01;97961.20;;;8.00
68510;BMP180;55512;50.102;19.958;2023-11-21T06:45:27;97965.20;;;8.00
68510;BMP180;55512;50.102;19.958;2023-11-21T06:47:53;97966.20;;;8.00
68510;BMP180;55512;50.102;19.958;2023-11-21T06:50:18;97965.20;;;8.06
68510;BMP180;55512;50.102;19.958;2023-11-21T06:52:44;97967.20;;;8.10
68510;BMP180;55512;50.102;19.958;2023-11-21T06:55:09;97973.60;;;8.10
68510;BMP180;55512;50.102;19.958;2023-11-21T06:57:35;97971.40;;;8.10
68510;BMP180;55512;50.102;19.958;2023-11-21T07:00:01;97974.80;;;8.10
68510;BMP180;55512;50.102;19.958;2023-11-21T07:02:26;97977.40;;;8.14
68510;BMP180;55512;50.102;19.958;2023-11-21T07:04:53;97980.40;;;8.20
68510;BMP180;55512;50.102;19.958;2023-11-21T07:07:18;97984.20;;;8.20
68510;BMP180;55512;50.102;19.958;2023-11-21T07:09:44;97983.60;;;8.26
68510;BMP180;55512;50.102;19.958;2023-11-21T07:12:10;97982.60;;;8.30
68510;BMP180;55512;50.102;19.958;2023-11-21T07:14:36;97984.80;;;8.30
68510;BMP180;55512;50.102;19.958;2023-11-21T07:17:04;97990.80;;;8.30
68510;BMP180;55512;50.102;19.958;2023-11-21T07:19:30;97991.00;;;8.32
68510;BMP180;55512;50.102;19.958;2023-11-21T07:21:56;97992.00;;;8.40
68510;BMP180;55512;50.102;19.958;2023-11-21T07:24:21;97996.60;;;8.40
68510;BMP180;55512;50.102;19.958;2023-11-21T07:26:48;97996.00;;;8.40
68510;BMP180;55512;50.102;19.958;2023-11-21T07:29:14;97993.40;;;8.40
68510;BMP180;55512;50.102;19.958;2023-11-21T07:31:40;97994.20;;;8.38
68510;BMP180;55512;50.102;19.958;2023-11-21T07:34:06;97996.00;;;8.40
68510;BMP180;55512;50.102;19.958;2023-11-21T07:36:33;97997.60;;;8.40
68510;BMP180;55512;50.102;19.958;2023-11-21T07:38:59;97999.60;;;8.40
68510;BMP180;55512;50.102;19.958;2023-11-21T07:41:24;98004.60;;;8.40
68510;BMP180;55512;50.102;19.958;2023-11-21T07:43:50;98005.80;;;8.40
68510;BMP180;55512;50.102;19.958;2023-11-21T07:46:15;98008.80;;;8.38
68510;BMP180;55512;50.102;19.958;2023-11-21T07:48:42;98011.00;;;8.30
68510;BMP180;55512;50.102;19.958;2023-11-21T07:51:09;98010.00;;;8.36
68510;BMP180;55512;50.102;19.958;2023-11-21T07:53:35;98010.20;;;8.36
68510;BMP180;55512;50.102;19.958;2023-11-21T07:56:06;98009.40;;;8.36
68510;BMP180;55512;50.102;19.958;2023-11-21T07:58:39;97999.60;;;8.40
68510;BMP180;55512;50.102;19.958;2023-11-21T08:01:05;98000.20;;;8.40
68510;BMP180;55512;50.102;19.958;2023-11-21T08:03:31;98002.40;;;8.34
68510;BMP180;55512;50.102;19.958;2023-11-21T08:06:00;98004.80;;;8.30
68510;BMP180;55512;50.102;19.958;2023-11-21T08:08:26;98005.00;;;8.32
68510;BMP180;55512;50.102;19.958;2023-11-21T08:10:52;98010.60;;;8.30
68510;BMP180;55512;50.102;19.958;2023-11-21T08:13:26;98007.60;;;8.30
68510;BMP180;55512;50.102;19.958;2023-11-21T08:15:56;98011.20;;;8.30
68510;BMP180;55512;50.102;19.958;2023-11-21T08:18:23;98011.40;;;8.30
68510;BMP180;55512;50.102;19.958;2023-11-21T08:20:49;98015.00;;;8.30
68510;BMP180;55512;50.102;19.958;2023-11-21T08:23:17;98015.40;;;8.36
68510;BMP180;55512;50.102;19.958;2023-11-21T08:25:46;98019.00;;;8.40
68510;BMP180;55512;50.102;19.958;2023-11-21T08:28:12;98024.00;;;8.46
68510;BMP180;55512;50.102;19.958;2023-11-21T08:30:40;98022.20;;;8.46
68510;BMP180;55512;50.102;19.958;2023-11-21T08:33:07;98024.20;;;8.50
68510;BMP180;55512;50.102;19.958;2023-11-21T08:35:34;98019.00;;;8.50
68510;BMP180;55512;50.102;19.958;2023-11-21T08:37:59;98024.80;;;8.50
68510;BMP180;55512;50.102;19.958;2023-11-21T08:40:25;98024.20;;;8.60
68510;BMP180;55512;50.102;19.958;2023-11-21T08:42:50;98022.80;;;8.60
68510;BMP180;55512;50.102;19.958;2023-11-21T08:45:18;98026.60;;;8.60
68510;BMP180;55512;50.102;19.958;2023-11-21T08:47:45;98025.40;;;8.60
68510;BMP180;55512;50.102;19.958;2023-11-21T08:50:10;98032.80;;;8.60
68510;BMP180;55512;50.102;19.958;2023-11-21T08:52:38;98031.40;;;8.70
68510;BMP180;55512;50.102;19.958;2023-11-21T08:55:05;98034.40;;;8.70
68510;BMP180;55512;50.102;19.958;2023-11-21T08:57:40;98039.80;;;8.66
68510;BMP180;55512;50.102;19.958;2023-11-21T09:00:10;98040.40;;;8.62
68510;BMP180;55512;50.102;19.958;2023-11-21T09:02:40;98043.60;;;8.64
68510;BMP180;55512;50.102;19.958;2023-11-21T09:05:10;98039.40;;;8.66
68510;BMP180;55512;50.102;19.958;2023-11-21T09:07:38;98042.80;;;8.70
68510;BMP180;55512;50.102;19.958;2023-11-21T09:10:04;98044.80;;;8.70
68510;BMP180;55512;50.102;19.958;2023-11-21T09:12:33;98039.40;;;8.68
68510;BMP180;55512;50.102;19.958;2023-11-21T09:15:02;98036.20;;;8.68
68510;BMP180;55512;50.102;19.958;2023-11-21T09:17:28;98038.60;;;8.68
68510;BMP180;55512;50.102;19.958;2023-11-21T09:19:53;98040.00;;;8.70
68510;BMP180;55512;50.102;19.958;2023-11-21T09:22:18;98039.40;;;8.70
68510;BMP180;55512;50.102;19.958;2023-11-21T09:24:44;98034.60;;;8.66
68510;BMP180;55512;50.102;19.958;2023-11-21T09:27:10;98034.00;;;8.60
68510;BMP180;55512;50.102;19.958;2023-11-21T09:29:36;98033.00;;;8.68
68510;BMP180;55512;50.102;19.958;2023-11-21T09:32:05;98028.80;;;8.70
68510;BMP180;55512;50.102;19.958;2023-11-21T09:34:41;98033.60;;;8.76
68510;BMP180;55512;50.102;19.958;2023-11-21T09:37:08;98039.80;;;8.80
68510;BMP180;55512;50.102;19.958;2023-11-21T09:39:34;98037.00;;;8.84
68510;BMP180;55512;50.102;19.958;2023-11-21T09:42:17;98036.80;;;8.90
68510;BMP180;55512;50.102;19.958;2023-11-21T09:47:38;98038.40;;;8.90
68510;BMP180;55512;50.102;19.958;2023-11-21T09:50:05;98042.60;;;8.96
68510;BMP180;55512;50.102;19.958;2023-11-21T09:55:17;98048.20;;;9.00
68510;BMP180;55512;50.102;19.958;2023-11-21T09:57:45;98048.60;;;9.00
68510;BMP180;55512;50.102;19.958;2023-11-21T10:00:17;98052.40;;;9.00
68510;BMP180;55512;50.102;19.958;2023-11-21T10:02:46;98048.40;;;9.00
68510;BMP180;55512;50.102;19.958;2023-11-21T10:05:13;98052.40;;;9.00
68510;BMP180;55512;50.102;19.958;2023-11-21T10:07:39;98049.40;;;9.06
68510;BMP180;55512;50.102;19.958;2023-11-21T10:10:08;98048.40;;;9.10
68510;BMP180;55512;50.102;19.958;2023-11-21T10:12:35;98052.00;;;9.10
68510;BMP180;55512;50.102;19.958;2023-11-21T10:15:03;98051.00;;;9.20
68510;BMP180;55512;50.102;19.958;2023-11-21T10:17:36;98050.80;;;9.20
68510;BMP180;55512;50.102;19.958;2023-11-21T10:20:10;98053.00;;;9.30
68510;BMP180;55512;50.102;19.958;2023-11-21T10:22:42;98051.80;;;9.30
68510;BMP180;55512;50.102;19.958;2023-11-21T10:25:12;98054.00;;;9.38
68510;BMP180;55512;50.102;19.958;2023-11-21T10:27:42;98057.40;;;9.40
68510;BMP180;55512;50.102;19.958;2023-11-21T10:30:10;98057.00;;;9.40
68510;BMP180;55512;50.102;19.958;2023-11-21T10:32:42;98061.00;;;9.42
68510;BMP180;55512;50.102;19.958;2023-11-21T10:35:09;98060.60;;;9.40
68510;BMP180;55512;50.102;19.958;2023-11-21T10:37:38;98057.80;;;9.40
68510;BMP180;55512;50.102;19.958;2023-11-21T10:40:10;98055.20;;;9.50
68510;BMP180;55512;50.102;19.958;2023-11-21T10:42:40;98054.00;;;9.60
68510;BMP180;55512;50.102;19.958;2023-11-21T10:45:07;98052.40;;;9.60
68510;BMP180;55512;50.102;19.958;2023-11-21T10:47:41;98058.60;;;9.60
68510;BMP180;55512;50.102;19.958;2023-11-21T10:50:08;98052.40;;;9.60
68510;BMP180;55512;50.102;19.958;2023-11-21T10:52:40;98050.40;;;9.60
68510;BMP180;55512;50.102;19.958;2023-11-21T10:55:20;98055.40;;;9.60
68510;BMP180;55512;50.102;19.958;2023-11-21T10:57:52;98053.00;;;9.60
68510;BMP180;55512;50.102;19.958;2023-11-21T11:00:18;98051.20;;;9.56
68510;BMP180;55512;50.102;19.958;2023-11-21T11:02:50;98058.60;;;9.50
68510;BMP180;55512;50.102;19.958;2023-11-21T11:05:20;98058.40;;;9.40
68510;BMP180;55512;50.102;19.958;2023-11-21T11:07:50;98058.20;;;9.38
68510;BMP180;55512;50.102;19.958;2023-11-21T11:10:21;98053.20;;;9.30
68510;BMP180;55512;50.102;19.958;2023-11-21T11:12:48;98055.20;;;9.20
68510;BMP180;55512;50.102;19.958;2023-11-21T11:15:16;98058.80;;;9.20
68510;BMP180;55512;50.102;19.958;2023-11-21T11:17:42;98064.60;;;9.16
68510;BMP180;55512;50.102;19.958;2023-11-21T11:20:14;98056.60;;;9.06
68510;BMP180;55512;50.102;19.958;2023-11-21T11:23:04;98051.80;;;9.00
68510;BMP180;55512;50.102;19.958;2023-11-21T11:28:48;98051.40;;;8.90
68510;BMP180;55512;50.102;19.958;2023-11-21T11:34:47;98054.60;;;8.80
68510;BMP180;55512;50.102;19.958;2023-11-21T11:37:15;98058.20;;;8.80
68510;BMP180;55512;50.102;19.958;2023-11-21T11:39:44;98054.80;;;8.74
68510;BMP180;55512;50.102;19.958;2023-11-21T11:42:16;98057.80;;;8.80
68510;BMP180;55512;50.102;19.958;2023-11-21T11:50:01;98069.60;;;8.92
68510;BMP180;55512;50.102;19.958;2023-11-21T11:52:34;98068.40;;;9.00
68510;BMP180;55512;50.102;19.958;2023-11-21T11:55:01;98069.00;;;9.02
68510;BMP180;55512;50.102;19.958;2023-11-21T11:57:30;98069.00;;;9.10
68510;BMP180;55512;50.102;19.958;2023-11-21T12:03:01;98075.60;;;9.20
68510;BMP180;55512;50.102;19.958;2023-11-21T12:05:31;98072.40;;;9.20
68510;BMP180;55512;50.102;19.958;2023-11-21T12:08:11;98077.60;;;9.28
68510;BMP180;55512;50.102;19.958;2023-11-21T12:10:39;98077.40;;;9.20
68510;BMP180;55512;50.102;19.958;2023-11-21T12:13:10;98073.80;;;9.20
68510;BMP180;55512;50.102;19.958;2023-11-21T12:15:37;98075.60;;;9.20
68510;BMP180;55512;50.102;19.958;2023-11-21T12:18:04;98075.20;;;9.30
68510;BMP180;55512;50.102;19.958;2023-11-21T12:20:31;98075.40;;;9.30
68510;BMP180;55512;50.102;19.958;2023-11-21T12:22:59;98075.60;;;9.40
68510;BMP180;55512;50.102;19.958;2023-11-21T12:25:29;98071.80;;;9.40
68510;BMP180;55512;50.102;19.958;2023-11-21T12:27:58;98071.00;;;9.40
68510;BMP180;55512;50.102;19.958;2023-11-21T12:30:29;98076.40;;;9.40
68510;BMP180;55512;50.102;19.958;2023-11-21T12:33:02;98077.00;;;9.40
68510;BMP180;55512;50.102;19.958;2023-11-21T12:35:31;98070.60;;;9.40
68510;BMP180;55512;50.102;19.958;2023-11-21T12:38:02;98073.80;;;9.40
68510;BMP180;55512;50.102;19.958;2023-11-21T12:40:28;98073.20;;;9.40
68510;BMP180;55512;50.102;19.958;2023-11-21T12:42:59;98075.20;;;9.40
68510;BMP180;55512;50.102;19.958;2023-11-21T12:45:28;98075.80;;;9.40
68510;BMP180;55512;50.102;19.958;2023-11-21T12:48:01;98077.40;;;9.42
68510;BMP180;55512;50.102;19.958;2023-11-21T12:50:34;98072.80;;;9.40
68510;BMP180;55512;50.102;19.958;2023-11-21T12:53:11;98076.20;;;9.40
68510;BMP180;55512;50.102;19.958;2023-11-21T12:55:38;98074.80;;;9.40
68510;BMP180;55512;50.102;19.958;2023-11-21T12:58:06;98077.60;;;9.40
68510;BMP180;55512;50.102;19.958;2023-11-21T13:00:45;98076.20;;;9.40
68510;BMP180;55512;50.102;19.958;2023-11-21T13:03:13;98078.60;;;9.40
68510;BMP180;55512;50.102;19.958;2023-11-21T13:05:43;98084.60;;;9.30
68510;BMP180;55512;50.102;19.958;2023-11-21T13:08:13;98080.60;;;9.30
68510;BMP180;55512;50.102;19.958;2023-11-21T13:10:44;98087.80;;;9.32
68510;BMP180;55512;50.102;19.958;2023-11-21T13:13:13;98086.80;;;9.32
68510;BMP180;55512;50.102;19.958;2023-11-21T13:15:54;98088.40;;;9.30
68510;BMP180;55512;50.102;19.958;2023-11-21T13:18:24;98090.40;;;9.30
68510;BMP180;55512;50.102;19.958;2023-11-21T13:20:53;98086.20;;;9.30
68510;BMP180;55512;50.102;19.958;2023-11-21T13:23:20;98092.00;;;9.30
68510;BMP180;55512;50.102;19.958;2023-11-21T13:25:46;98090.20;;;9.30
68510;BMP180;55512;50.102;19.958;2023-11-21T13:28:13;98094.00;;;9.30
68510;BMP180;55512;50.102;19.958;2023-11-21T13:30:41;98096.80;;;9.38
68510;BMP180;55512;50.102;19.958;2023-11-21T13:33:08;98101.80;;;9.46
68510;BMP180;55512;50.102;19.958;2023-11-21T13:35:36;98098.80;;;9.60
68510;BMP180;55512;50.102;19.958;2023-11-21T13:38:12;98095.40;;;9.70
68510;BMP180;55512;50.102;19.958;2023-11-21T13:40:40;98097.40;;;9.90
68510;BMP180;55512;50.102;19.958;2023-11-21T13:43:13;98099.00;;;10.00
68510;BMP180;55512;50.102;19.958;2023-11-21T13:45:40;98105.00;;;10.10
68510;BMP180;55512;50.102;19.958;2023-11-21T13:48:07;98105.40;;;10.20
68510;BMP180;55512;50.102;19.958;2023-11-21T13:50:43;98110.80;;;10.16
68510;BMP180;55512;50.102;19.958;2023-11-21T13:53:14;98114.40;;;10.10
68510;BMP180;55512;50.102;19.958;2023-11-21T13:55:54;98107.60;;;10.10
68510;BMP180;55512;50.102;19.958;2023-11-21T13:58:29;98108.00;;;10.00
68510;BMP180;55512;50.102;19.958;2023-11-21T14:01:23;98112.00;;;9.90
68510;BMP180;55512;50.102;19.958;2023-11-21T14:03:56;98111.40;;;9.80
68510;BMP180;55512;50.102;19.958;2023-11-21T14:06:35;98116.00;;;9.80
68510;BMP180;55512;50.102;19.958;2023-11-21T14:09:10;98118.80;;;9.70
68510;BMP180;55512;50.102;19.958;2023-11-21T14:11:39;98122.80;;;9.60
68510;BMP180;55512;50.102;19.958;2023-11-21T14:14:04;98118.40;;;9.50
68510;BMP180;55512;50.102;19.958;2023-11-21T14:16:30;98111.40;;;9.42
68510;BMP180;55512;50.102;19.958;2023-11-21T14:18:56;98117.40;;;9.40
68510;BMP180;55512;50.102;19.958;2023-11-21T14:21:29;98117.60;;;9.40
68510;BMP180;55512;50.102;19.958;2023-11-21T14:23:54;98116.20;;;9.40
68510;BMP180;55512;50.102;19.958;2023-11-21T14:26:21;98118.80;;;9.36
68510;BMP180;55512;50.102;19.958;2023-11-21T14:28:46;98124.00;;;9.30
68510;BMP180;55512;50.102;19.958;2023-11-21T14:31:14;98126.20;;;9.26
68510;BMP180;55512;50.102;19.958;2023-11-21T14:33:44;98127.60;;;9.20